This demonstration page uses our WeatherBlox Daily Observations layout. Learn more.

38.89511, -77.03637

Hourly Observations for November 14, 2017

Temp ( °F °C ) Dew Point ( °F °C ) Humidity (%) Winds ( mph kmh ) Pressure ( in mb ) Visibility ( mi km ) Precip ( " mm )
12:52 am 00:52 Mostly Clear 42 5.6 39 3.9 89 89 Calm 30.33 1027 7 11.265408 0 0
1:52 am 01:52 Mostly Clear 39 3.9 37 2.8 93 93 N 6 9 30.33 1027 7 11.265408 0 0
2:52 am 02:52 Mostly Cloudy 41 5 37 2.8 86 86 N 7 11 30.33 1027 10 16.09344 0 0
3:52 am 03:52 Mostly Cloudy 41 5 38 3.3 89 89 N 7 11 30.33 1027 10 16.09344 0 0
4:52 am 04:52 Mostly Cloudy 40 4.4 37 2.8 89 89 N 7 11 30.33 1027 10 16.09344 0 0
5:52 am 05:52 Cloudy 43 6.1 37 2.8 80 80 N 6 9 30.33 1027 10 16.09344 0 0
6:52 am 06:52 Cloudy 43 6.1 38 3.3 82 82 N 6 9 30.36 1028 10 16.09344 0 0
7:52 am 07:52 Cloudy 45 7.2 38 3.3 77 77 NNW 7 11 30.36 1028 10 16.09344 0 0
8:52 am 08:52 Cloudy 45 7.2 37 2.8 74 74 NNW 8 13 30.39 1029 10 16.09344 0 0
9:52 am 09:52 Cloudy 47 8.3 37 2.8 69 69 NW 7 11 30.39 1029 10 16.09344 0 0
10:52 am 10:52 Cloudy 49 9.4 37 2.8 64 64 NW 7 11 30.36 1028 10 16.09344 0 0
11:52 am 11:52 Cloudy 50 10 36 2.2 59 59 NW 7 11 30.33 1027 10 16.09344 0 0
12:52 pm 12:52 Cloudy 51 10.6 33 0.6 50 50 N 14 22 30.3 1026 10 16.09344 0 0
1:52 pm 13:52 Cloudy 50 10 33 0.6 52 52 NW 8 13 30.3 1026 10 16.09344 0 0
2:52 pm 14:52 Cloudy 50 10 31 -0.6 48 48 NNW 13 20 30.3 1026 10 16.09344 0 0
3:52 pm 15:52 Cloudy 49 9.4 32 0 52 52 N 12 19 30.3 1026 10 16.09344 0 0
4:52 pm 16:52 Cloudy 48 8.9 31 -0.6 52 52 N 14 22 30.3 1026 10 16.09344 0 0
5:52 pm 17:52 Cloudy 47 8.3 31 -0.6 54 54 N 14 22 30.3 1026 10 16.09344 0 0
6:52 pm 18:52 Cloudy 47 8.3 30 -1.1 52 52 N 13 20 30.3 1026 10 16.09344 0 0
7:52 pm 19:52 Cloudy 47 8.3 30 -1.1 52 52 N 14 22 30.3 1026 10 16.09344 0 0
8:52 pm 20:52 Cloudy 46 7.8 30 -1.1 54 54 NNE 10 17 30.3 1026 10 16.09344 0 0
9:52 pm 21:52 Partly Cloudy 43 6.1 31 -0.6 63 63 N 8 13 30.3 1026 10 16.09344 0 0
10:52 pm 22:52 Partly Cloudy 44 6.7 30 -1.1 58 58 NNW 7 11 30.3 1026 10 16.09344 0 0
11:52 pm 23:52 Partly Cloudy 43 6.1 30 -1.1 60 60 NNW 9 15 30.3 1026 10 16.09344 0 0

Powered by AerisWeather